Terminal Aerodrome Forecast
Issued by NWS Miami, FL

Home | Current Version | Previous Version | Text Only | Print | Product List | Glossary On
Versions: 1 2 3 4 5 6 7 8 9 10 11 12 13 14 15 16 17 18 19 20 21 22 23 24 25 26 27
000
FTUS42 KMFL 240539
TAFAPF
TAF
KAPF 240539Z 2406/2506 22005KT P6SM SCT010 OVC090
      TEMPO 2406/2410 3SM BR SCT005 BKN010 OVC090
     FM241400 25008KT P6SM FEW010 SCT030 BKN060
     FM241800 28011KT P6SM VCSH SCT025 BKN060
     FM250000 31005KT P6SM FEW120 SCT250=

USA.gov is the U.S. government's official web portal to all federal, state and local government web resources and services.